createdAt,value
2017-07-11T00:00:19.543Z,0
2017-07-11T00:01:00.079Z,0
2017-07-11T00:01:40.561Z,0
2017-07-11T00:02:21.120Z,0
2017-07-11T00:03:01.547Z,0
2017-07-11T00:03:42.064Z,0
2017-07-11T00:04:22.585Z,0
2017-07-11T00:05:03.123Z,0
2017-07-11T00:05:43.591Z,0
2017-07-11T00:06:24.097Z,0
2017-07-11T00:07:04.558Z,0
2017-07-11T00:07:45.113Z,0
2017-07-11T00:08:25.683Z,0
2017-07-11T00:09:06.135Z,0
2017-07-11T00:09:46.580Z,0
2017-07-11T00:10:27.105Z,0
2017-07-11T00:11:07.570Z,0
2017-07-11T00:11:48.089Z,0
2017-07-11T00:12:28.600Z,0
2017-07-11T00:13:09.107Z,0
2017-07-11T00:13:49.646Z,0
2017-07-11T00:14:30.101Z,0
2017-07-11T00:15:10.620Z,0
2017-07-11T00:15:51.100Z,0
2017-07-11T00:16:31.575Z,0
2017-07-11T00:17:12.046Z,0
2017-07-11T00:17:52.576Z,0
2017-07-11T00:18:33.145Z,0
2017-07-11T00:19:13.570Z,0
2017-07-11T00:19:54.108Z,0
2017-07-11T00:20:35.499Z,0
2017-07-11T00:21:16.015Z,0
2017-07-11T00:21:56.493Z,0
2017-07-11T00:22:37.029Z,0
2017-07-11T00:23:17.549Z,0
2017-07-11T00:23:58.021Z,0
2017-07-11T00:24:38.530Z,0
2017-07-11T00:25:20.654Z,0
2017-07-11T00:26:05.709Z,0
2017-07-11T00:26:46.170Z,0
2017-07-11T00:27:26.667Z,0
2017-07-11T00:28:07.177Z,0
2017-07-11T00:28:47.676Z,0
2017-07-11T00:29:28.128Z,0
2017-07-11T00:30:08.613Z,0
2017-07-11T00:30:49.205Z,0
2017-07-11T00:31:29.606Z,0
2017-07-11T00:32:10.158Z,0
2017-07-11T00:32:50.649Z,0
2017-07-11T00:33:31.164Z,0
2017-07-11T00:34:11.683Z,0
2017-07-11T00:34:52.115Z,0
2017-07-11T00:35:32.647Z,0
2017-07-11T00:36:13.129Z,0
2017-07-11T00:36:53.620Z,0
2017-07-11T00:37:34.241Z,0
2017-07-11T00:38:14.729Z,0
2017-07-11T00:38:55.238Z,0
2017-07-11T00:39:35.766Z,0
2017-07-11T00:40:16.209Z,0
2017-07-11T00:40:56.771Z,0
2017-07-11T00:41:37.197Z,0
2017-07-11T00:42:17.751Z,0
2017-07-11T00:42:58.220Z,0
2017-07-11T00:43:38.708Z,0
2017-07-11T00:44:19.202Z,0
2017-07-11T00:44:59.728Z,0
2017-07-11T00:45:40.178Z,0
2017-07-11T00:46:20.750Z,0
2017-07-11T00:47:01.267Z,0
2017-07-11T00:47:41.776Z,0
2017-07-11T00:48:22.254Z,0
2017-07-11T00:49:02.782Z,0
2017-07-11T00:49:43.290Z,0
2017-07-11T00:50:23.800Z,0
2017-07-11T00:51:04.281Z,0
2017-07-11T00:51:44.799Z,0
2017-07-11T00:52:25.364Z,0
2017-07-11T00:53:05.846Z,0
2017-07-11T00:53:46.300Z,0
2017-07-11T00:54:26.799Z,0
2017-07-11T00:55:07.308Z,0
2017-07-11T00:55:47.796Z,0
2017-07-11T00:56:28.326Z,0
2017-07-11T00:57:08.813Z,0
2017-07-11T00:57:49.321Z,0
2017-07-11T00:58:29.819Z,0
2017-07-11T01:00:28.016Z,0
2017-07-11T01:02:41.277Z,0
2017-07-11T01:03:21.782Z,0
2017-07-11T01:04:02.307Z,0
2017-07-11T01:04:42.805Z,0
2017-07-11T01:05:23.303Z,0
2017-07-11T01:06:03.801Z,0
2017-07-11T01:06:44.319Z,0
2017-07-11T01:07:24.843Z,0
2017-07-11T01:08:05.362Z,0
2017-07-11T01:08:45.913Z,0
2017-07-11T01:09:26.397Z,0
2017-07-11T01:10:06.900Z,0
2017-07-11T01:10:47.416Z,0
2017-07-11T01:11:27.956Z,0
2017-07-11T01:12:08.447Z,0
2017-07-11T01:12:48.969Z,0
2017-07-11T01:13:29.453Z,0
2017-07-11T01:14:09.970Z,0
2017-07-11T01:14:50.513Z,0
2017-07-11T01:15:30.994Z,0
2017-07-11T01:16:11.513Z,0
2017-07-11T01:16:52.028Z,0
2017-07-11T01:17:32.533Z,0
2017-07-11T01:18:13.035Z,0
2017-07-11T01:18:53.541Z,0
2017-07-11T01:19:34.066Z,0
2017-07-11T01:22:07.703Z,0
2017-07-11T01:22:48.229Z,0
2017-07-11T01:23:28.766Z,0
2017-07-11T01:24:09.262Z,0
2017-07-11T01:24:49.925Z,0
2017-07-11T01:25:30.390Z,0
2017-07-11T01:26:10.917Z,0
2017-07-11T01:26:51.480Z,0
2017-07-11T01:27:32.037Z,0
2017-07-11T01:28:12.553Z,0
2017-07-11T01:28:53.080Z,0
2017-07-11T01:29:33.550Z,0
2017-07-11T01:30:14.074Z,0
2017-07-11T01:30:54.570Z,0
2017-07-11T01:31:35.089Z,0
2017-07-11T01:32:15.593Z,0
2017-07-11T01:32:56.087Z,0
2017-07-11T01:33:36.610Z,0
2017-07-11T01:34:17.099Z,0
2017-07-11T01:34:57.609Z,0
2017-07-11T01:35:38.116Z,0
2017-07-11T01:36:18.644Z,0
2017-07-11T01:36:59.117Z,0
2017-07-11T01:37:39.638Z,0
2017-07-11T01:38:20.136Z,0
2017-07-11T01:39:00.706Z,0
2017-07-11T01:39:41.154Z,0
2017-07-11T01:40:21.645Z,0
2017-07-11T01:41:03.558Z,0
2017-07-11T01:41:43.520Z,0
2017-07-11T01:42:24.023Z,0
2017-07-11T01:43:04.549Z,0
2017-07-11T01:43:45.027Z,0
2017-07-11T01:44:25.551Z,0
2017-07-11T01:45:06.075Z,0
2017-07-11T01:45:46.574Z,0
2017-07-11T01:46:27.082Z,0
2017-07-11T01:47:07.615Z,0
2017-07-11T01:47:48.101Z,0
2017-07-11T01:48:28.610Z,0
2017-07-11T01:49:09.137Z,0
2017-07-11T01:49:49.649Z,0
2017-07-11T01:50:30.156Z,0
2017-07-11T01:51:10.659Z,0
2017-07-11T01:51:51.175Z,0
2017-07-11T01:52:31.679Z,0
2017-07-11T01:53:12.211Z,0
2017-07-11T01:53:52.715Z,0
2017-07-11T01:54:33.197Z,0
2017-07-11T01:55:13.706Z,0
2017-07-11T01:55:54.205Z,0
2017-07-11T01:56:34.708Z,0
2017-07-11T01:57:15.265Z,0
2017-07-11T01:57:55.736Z,0
2017-07-11T01:58:36.239Z,0
2017-07-11T01:59:16.713Z,0
2017-07-11T01:59:57.237Z,0
2017-07-11T02:00:37.755Z,0
2017-07-11T02:01:18.327Z,0
2017-07-11T02:01:58.868Z,0
2017-07-11T02:02:39.328Z,0
2017-07-11T02:03:19.845Z,0
2017-07-11T02:04:00.326Z,0
2017-07-11T02:04:40.848Z,0
2017-07-11T02:05:21.347Z,0
2017-07-11T02:06:01.892Z,0
2017-07-11T02:06:42.346Z,0
2017-07-11T02:07:22.890Z,0
2017-07-11T02:08:03.367Z,0
2017-07-11T02:08:43.841Z,0
2017-07-11T02:09:24.371Z,0
2017-07-11T02:10:04.842Z,0
2017-07-11T02:10:45.355Z,0
2017-07-11T02:11:25.860Z,0
2017-07-11T02:12:06.381Z,0
2017-07-11T02:12:46.903Z,0
2017-07-11T02:13:27.420Z,0
2017-07-11T02:14:07.889Z,0
2017-07-11T02:14:48.437Z,0
2017-07-11T02:15:28.914Z,0
2017-07-11T02:16:09.445Z,0
2017-07-11T02:16:49.903Z,0
2017-07-11T02:17:30.419Z,0
2017-07-11T02:18:10.927Z,0
2017-07-11T02:18:51.462Z,0
2017-07-11T02:19:31.967Z,0
2017-07-11T02:20:12.496Z,0
2017-07-11T02:20:52.984Z,0
2017-07-11T02:21:33.487Z,0
2017-07-11T02:22:14.001Z,0
2017-07-11T02:22:54.552Z,0
2017-07-11T02:23:35.108Z,0
2017-07-11T02:24:15.574Z,0
2017-07-11T02:24:56.112Z,0
2017-07-11T02:25:36.615Z,0
2017-07-11T02:26:17.126Z,0
2017-07-11T02:26:57.608Z,0
2017-07-11T02:27:38.131Z,0
2017-07-11T02:28:18.647Z,0
2017-07-11T02:28:59.199Z,0
2017-07-11T02:29:39.669Z,0
2017-07-11T02:30:20.215Z,0
2017-07-11T02:31:00.714Z,0
2017-07-11T02:31:41.244Z,0
2017-07-11T02:32:21.762Z,0
2017-07-11T02:33:02.251Z,0
2017-07-11T02:33:42.775Z,0
2017-07-11T02:34:23.299Z,0
2017-07-11T02:35:03.822Z,0
2017-07-11T02:35:44.336Z,0
2017-07-11T02:36:24.846Z,0
2017-07-11T02:37:05.359Z,0
2017-07-11T02:37:45.881Z,0
2017-07-11T02:38:26.461Z,0
2017-07-11T02:39:06.919Z,0
2017-07-11T02:39:47.424Z,0
2017-07-11T02:40:27.931Z,0
2017-07-11T02:41:08.442Z,0
2017-07-11T02:41:48.947Z,0
2017-07-11T02:42:29.435Z,0
2017-07-11T02:43:09.967Z,0
2017-07-11T02:43:50.504Z,0
2017-07-11T02:44:31.018Z,0
2017-07-11T02:45:11.482Z,0
2017-07-11T02:45:52.003Z,0
2017-07-11T02:46:32.531Z,0
2017-07-11T02:47:13.035Z,0
2017-07-11T02:47:53.545Z,0
2017-07-11T02:48:34.087Z,0
2017-07-11T02:49:14.593Z,0
2017-07-11T02:49:55.110Z,0
2017-07-11T02:50:35.622Z,0
2017-07-11T02:51:16.142Z,0
2017-07-11T02:51:56.662Z,0
2017-07-11T02:52:37.175Z,0
2017-07-11T02:53:17.675Z,0
2017-07-11T02:53:58.191Z,0
2017-07-11T02:54:38.686Z,0
2017-07-11T02:55:19.188Z,0
2017-07-11T02:55:59.723Z,0
2017-07-11T02:56:40.248Z,0
2017-07-11T02:57:20.766Z,0
2017-07-11T02:58:01.278Z,0
2017-07-11T02:58:41.798Z,0
2017-07-11T02:59:22.292Z,0
2017-07-11T03:00:02.792Z,0
2017-07-11T03:00:43.266Z,0
2017-07-11T03:01:23.755Z,0
2017-07-11T03:02:04.274Z,0
2017-07-11T03:02:44.777Z,0
2017-07-11T03:03:25.266Z,0
2017-07-11T03:04:05.748Z,0
2017-07-11T03:04:46.245Z,0
2017-07-11T03:05:26.770Z,0
2017-07-11T03:06:07.277Z,0
2017-07-11T03:06:47.802Z,0
2017-07-11T03:07:28.298Z,0
2017-07-11T03:08:08.815Z,0
2017-07-11T03:08:49.352Z,0
2017-07-11T03:09:29.859Z,0
2017-07-11T03:10:10.367Z,0
2017-07-11T03:10:50.891Z,0
2017-07-11T03:11:31.409Z,0
2017-07-11T03:12:11.932Z,0
2017-07-11T03:12:52.447Z,0
2017-07-11T03:13:32.962Z,0
2017-07-11T03:14:13.448Z,0
2017-07-11T03:14:53.949Z,0
2017-07-11T03:15:34.725Z,0
2017-07-11T03:16:15.118Z,0
2017-07-11T03:16:55.609Z,0
2017-07-11T03:17:36.109Z,0
2017-07-11T03:18:16.631Z,0
2017-07-11T03:18:57.185Z,0
2017-07-11T03:19:37.689Z,0
2017-07-11T03:20:18.271Z,4
2017-07-11T03:20:58.759Z,4
2017-07-11T03:21:39.284Z,4
2017-07-11T03:22:19.745Z,4
2017-07-11T03:23:00.276Z,4
2017-07-11T03:23:40.782Z,4
2017-07-11T03:24:21.291Z,4
2017-07-11T03:25:01.820Z,4
2017-07-11T03:25:42.399Z,4
2017-07-11T03:26:22.924Z,4
2017-07-11T03:27:03.382Z,0
2017-07-11T03:27:43.931Z,4
2017-07-11T03:28:24.400Z,4
2017-07-11T03:29:04.897Z,4
2017-07-11T03:29:45.415Z,4
2017-07-11T03:30:25.911Z,4
2017-07-11T03:31:06.417Z,8
2017-07-11T03:33:25.333Z,8
2017-07-11T03:34:05.834Z,8
2017-07-11T03:34:46.349Z,8
2017-07-11T03:35:26.867Z,8
2017-07-11T03:36:07.397Z,8
2017-07-11T03:36:47.914Z,12
2017-07-11T03:37:28.441Z,8
2017-07-11T03:38:08.953Z,12
2017-07-11T03:38:49.466Z,12
2017-07-11T03:39:29.975Z,16
2017-07-11T03:40:10.495Z,16
2017-07-11T03:40:51.020Z,20
2017-07-11T03:41:31.535Z,20
2017-07-11T03:42:12.050Z,20
2017-07-11T03:42:52.586Z,24
2017-07-11T03:43:33.102Z,20
2017-07-11T03:44:13.595Z,28
2017-07-11T03:44:54.067Z,28
2017-07-11T03:45:34.582Z,32
2017-07-11T03:46:15.101Z,36
2017-07-11T03:46:55.596Z,40
2017-07-11T03:47:36.118Z,44
2017-07-11T03:48:16.624Z,48
2017-07-11T03:48:57.141Z,40
2017-07-11T03:49:37.633Z,40
2017-07-11T03:50:18.170Z,36
2017-07-11T03:50:58.695Z,36
2017-07-11T03:51:39.215Z,40
2017-07-11T03:52:19.712Z,44
2017-07-11T03:53:00.234Z,44
2017-07-11T03:53:40.767Z,44
2017-07-11T03:54:21.251Z,40
2017-07-11T03:55:01.778Z,32
2017-07-11T03:55:42.296Z,32
2017-07-11T03:56:22.805Z,28
2017-07-11T03:57:03.333Z,32
2017-07-11T03:57:43.843Z,36
2017-07-11T03:58:24.358Z,40
2017-07-11T03:59:04.877Z,36
2017-07-11T03:59:45.390Z,36
2017-07-11T04:00:25.907Z,36
2017-07-11T04:01:06.447Z,40
2017-07-11T04:01:46.934Z,44
2017-07-11T04:02:27.424Z,44
2017-07-11T04:03:07.947Z,44
2017-07-11T04:03:48.399Z,48
2017-07-11T04:04:28.933Z,52
2017-07-11T04:05:09.437Z,52
2017-07-11T04:05:49.925Z,52
2017-07-11T04:06:30.419Z,52
2017-07-11T04:07:10.941Z,48
2017-07-11T04:07:51.446Z,52
2017-07-11T04:08:31.977Z,48
2017-07-11T04:09:12.493Z,48
2017-07-11T04:09:53.004Z,52
2017-07-11T04:10:33.510Z,56
2017-07-11T04:11:14.105Z,72
2017-07-11T04:11:54.585Z,80
2017-07-11T04:12:35.087Z,96
2017-07-11T04:13:15.615Z,108
2017-07-11T04:13:56.131Z,116
2017-07-11T04:14:36.649Z,136
2017-07-11T04:15:17.159Z,152
2017-07-11T04:15:57.678Z,156
2017-07-11T04:16:38.202Z,156
2017-07-11T04:17:18.709Z,140
2017-07-11T04:17:59.244Z,132
2017-07-11T04:18:39.742Z,128
2017-07-11T04:19:20.269Z,136
2017-07-11T04:20:00.767Z,148
2017-07-11T04:20:41.286Z,148
2017-07-11T04:21:21.809Z,176
2017-07-11T04:22:02.302Z,196
2017-07-11T04:22:42.854Z,236
2017-07-11T04:23:23.314Z,264
2017-07-11T04:24:03.824Z,300
2017-07-11T04:24:44.333Z,332
2017-07-11T04:25:24.880Z,352
2017-07-11T04:26:05.395Z,360
2017-07-11T04:26:45.935Z,348
2017-07-11T04:27:26.415Z,300
2017-07-11T04:28:06.950Z,244
2017-07-11T04:28:47.462Z,184
2017-07-11T04:29:27.987Z,132
2017-07-11T04:30:08.525Z,108
2017-07-11T04:30:49.019Z,84
2017-07-11T04:31:29.535Z,76
2017-07-11T04:32:10.049Z,76
2017-07-11T04:32:50.587Z,76
2017-07-11T04:33:31.114Z,76
2017-07-11T04:34:11.622Z,80
2017-07-11T04:34:52.144Z,112
2017-07-11T04:35:32.660Z,132
2017-07-11T04:36:13.177Z,152
2017-07-11T04:36:53.687Z,156
2017-07-11T04:37:34.223Z,148
2017-07-11T04:38:14.727Z,160
2017-07-11T04:38:55.219Z,192
2017-07-11T04:39:35.728Z,208
2017-07-11T04:40:16.240Z,184
2017-07-11T04:40:56.763Z,176
2017-07-11T04:41:37.256Z,172
2017-07-11T04:42:17.776Z,168
2017-07-11T04:42:58.253Z,160
2017-07-11T04:43:38.755Z,152
2017-07-11T04:44:19.242Z,140
2017-07-11T04:44:59.743Z,136
2017-07-11T04:45:40.254Z,140
2017-07-11T04:46:20.772Z,152
2017-07-11T04:47:01.270Z,148
2017-07-11T04:47:41.745Z,132
2017-07-11T04:48:22.237Z,124
2017-07-11T04:49:02.735Z,140
2017-07-11T04:49:43.262Z,152
2017-07-11T04:50:23.738Z,164
2017-07-11T04:51:04.234Z,168
2017-07-11T04:51:44.808Z,160
2017-07-11T04:52:25.329Z,168
2017-07-11T04:53:05.799Z,180
2017-07-11T04:53:46.325Z,204
2017-07-11T04:54:26.827Z,232
2017-07-11T04:55:07.333Z,252
2017-07-11T04:55:47.834Z,260
2017-07-11T04:56:28.342Z,276
2017-07-11T04:57:08.787Z,284
2017-07-11T04:57:49.310Z,292
2017-07-11T04:58:29.808Z,304
2017-07-11T04:59:10.290Z,312
2017-07-11T04:59:50.794Z,308
2017-07-11T05:00:31.306Z,304
2017-07-11T05:01:11.827Z,292
2017-07-11T05:01:52.319Z,296
2017-07-11T05:02:32.823Z,292
2017-07-11T05:03:13.304Z,296
2017-07-11T05:03:53.822Z,304
2017-07-11T05:04:34.362Z,304
2017-07-11T05:05:14.855Z,316
2017-07-11T05:05:55.382Z,324
2017-07-11T05:06:35.891Z,340
2017-07-11T05:07:16.419Z,348
2017-07-11T05:07:56.970Z,356
2017-07-11T05:08:37.496Z,360
2017-07-11T05:09:17.993Z,368
2017-07-11T05:09:58.485Z,364
2017-07-11T05:10:39.005Z,360
2017-07-11T05:11:19.542Z,352
2017-07-11T05:12:00.042Z,324
2017-07-11T05:12:40.571Z,304
2017-07-11T05:13:21.088Z,288
2017-07-11T05:14:01.617Z,284
2017-07-11T05:14:42.129Z,284
2017-07-11T05:15:22.638Z,288
2017-07-11T05:16:03.130Z,304
2017-07-11T05:16:43.641Z,328
2017-07-11T05:17:24.133Z,340
2017-07-11T05:18:04.635Z,360
2017-07-11T05:18:45.105Z,384
2017-07-11T05:19:25.597Z,432
2017-07-11T05:20:06.107Z,416
2017-07-11T05:20:46.610Z,436
2017-07-11T05:21:27.165Z,476
2017-07-11T05:22:07.696Z,528
2017-07-11T05:22:48.330Z,592
2017-07-11T05:23:28.842Z,620
2017-07-11T05:24:09.362Z,752
2017-07-11T05:24:49.898Z,772
2017-07-11T05:25:30.430Z,872
2017-07-11T05:26:10.928Z,964
2017-07-11T05:26:51.456Z,1072
2017-07-11T05:27:31.999Z,1200
2017-07-11T05:28:12.573Z,1316
2017-07-11T05:28:53.051Z,1356
2017-07-11T05:29:33.581Z,1464
2017-07-11T05:30:14.089Z,1468
2017-07-11T05:30:54.649Z,1540
2017-07-11T05:31:35.147Z,1640
2017-07-11T05:32:15.672Z,1692
2017-07-11T05:32:56.195Z,1792
2017-07-11T05:33:36.722Z,1848
2017-07-11T05:34:17.251Z,2212
2017-07-11T05:34:57.871Z,2284
2017-07-11T05:35:38.391Z,2276
2017-07-11T05:36:18.871Z,2184
2017-07-11T05:36:59.407Z,2152
2017-07-11T05:37:39.912Z,2188
2017-07-11T05:38:20.436Z,2060
2017-07-11T05:39:00.961Z,2396
2017-07-11T05:39:43.273Z,2168
2017-07-11T05:40:23.797Z,2132
2017-07-11T05:41:05.717Z,1776
2017-07-11T05:41:46.712Z,1664
2017-07-11T05:42:26.747Z,1764
2017-07-11T05:43:07.238Z,1764
2017-07-11T05:43:47.794Z,1976
2017-07-11T05:44:29.024Z,2008
2017-07-11T05:45:10.223Z,2180
2017-07-11T05:45:51.342Z,2276
2017-07-11T05:46:31.862Z,2144
2017-07-11T05:47:12.881Z,2108
2017-07-11T05:47:53.554Z,1548
2017-07-11T05:48:34.123Z,1344
2017-07-11T05:49:14.626Z,1212
2017-07-11T05:49:55.129Z,1296
2017-07-11T05:50:35.687Z,1508
2017-07-11T05:51:16.203Z,1724
2017-07-11T05:51:56.715Z,2052
2017-07-11T05:52:37.232Z,2128
2017-07-11T05:53:17.742Z,2056
2017-07-11T05:53:58.249Z,2104
2017-07-11T05:54:38.768Z,1896
2017-07-11T05:55:19.297Z,1960
2017-07-11T05:55:59.793Z,1744
2017-07-11T05:56:40.310Z,2020
2017-07-11T05:57:21.713Z,1888
2017-07-11T05:58:01.285Z,2208
2017-07-11T05:58:41.759Z,2224
2017-07-11T05:59:22.283Z,6712
2017-07-11T06:00:02.785Z,7304
2017-07-11T06:00:43.300Z,7948
2017-07-11T06:01:23.773Z,7904
2017-07-11T06:02:04.296Z,7776
2017-07-11T06:02:44.809Z,7432
2017-07-11T06:03:25.293Z,7364
2017-07-11T06:04:05.805Z,6984
2017-07-11T06:04:46.310Z,7664
2017-07-11T06:05:26.823Z,7312
2017-07-11T06:06:07.355Z,7116
2017-07-11T06:06:47.839Z,7596
2017-07-11T06:07:28.364Z,7648
2017-07-11T06:08:08.863Z,7380
2017-07-11T06:08:49.410Z,7612
2017-07-11T06:09:29.950Z,6040
2017-07-11T06:10:10.465Z,3440
2017-07-11T06:10:50.937Z,4792
2017-07-11T06:11:31.446Z,4060
2017-07-11T06:12:11.947Z,3268
2017-07-11T06:12:52.474Z,3536
2017-07-11T06:13:32.976Z,3936
2017-07-11T06:14:15.308Z,3316
2017-07-11T06:14:56.548Z,3352
2017-07-11T06:15:37.068Z,3528
2017-07-11T06:16:17.574Z,3316
2017-07-11T06:16:58.081Z,3332
2017-07-11T06:17:38.633Z,3208
2017-07-11T06:18:19.131Z,3348
2017-07-11T06:18:59.628Z,3344
2017-07-11T06:19:40.139Z,3144
2017-07-11T06:20:20.660Z,3104
2017-07-11T06:21:01.181Z,3168
2017-07-11T06:21:41.683Z,3092
2017-07-11T06:22:22.186Z,3112
2017-07-11T06:23:02.671Z,2324
2017-07-11T06:23:43.208Z,3032
2017-07-11T06:24:23.695Z,3108
2017-07-11T06:25:04.187Z,3016
2017-07-11T06:25:44.695Z,3144
2017-07-11T06:26:25.246Z,3224
2017-07-11T06:27:05.712Z,3148
2017-07-11T06:27:46.221Z,2048
2017-07-11T06:28:26.763Z,3484
2017-07-11T06:29:07.197Z,3376
2017-07-11T06:29:47.734Z,2032
2017-07-11T06:30:28.287Z,1776
2017-07-11T06:31:08.754Z,1580
2017-07-11T06:31:49.254Z,1292
2017-07-11T06:32:29.788Z,1752
2017-07-11T06:33:10.284Z,1856
2017-07-11T06:33:50.723Z,2068
2017-07-11T06:34:31.260Z,1844
2017-07-11T06:35:11.804Z,1740
2017-07-11T06:35:52.268Z,1464
2017-07-11T06:36:32.747Z,1740
2017-07-11T06:37:13.239Z,2140
2017-07-11T06:37:53.755Z,2372
2017-07-11T06:38:34.268Z,4164
2017-07-11T06:39:14.755Z,4032
2017-07-11T06:39:55.245Z,3848
2017-07-11T06:40:35.791Z,2512
2017-07-11T06:41:16.308Z,2280
2017-07-11T06:41:56.794Z,2148
2017-07-11T06:42:37.311Z,2152
2017-07-11T06:43:17.822Z,3448
2017-07-11T06:43:58.348Z,1800
2017-07-11T06:44:38.887Z,3644
2017-07-11T06:45:19.410Z,3528
2017-07-11T06:45:59.915Z,2124
2017-07-11T06:46:40.433Z,1920
2017-07-11T06:47:20.924Z,2884
2017-07-11T06:48:01.527Z,1516
2017-07-11T06:48:42.052Z,1600
2017-07-11T06:49:22.551Z,1764
2017-07-11T06:50:03.140Z,2344
2017-07-11T06:50:43.594Z,3132
2017-07-11T06:51:24.107Z,1748
2017-07-11T06:52:04.649Z,2100
2017-07-11T06:52:45.144Z,1360
2017-07-11T06:53:25.669Z,1184
2017-07-11T06:54:06.176Z,1172
2017-07-11T06:54:46.731Z,1080
2017-07-11T06:55:27.224Z,1104
2017-07-11T06:56:07.750Z,1440
2017-07-11T06:56:48.259Z,2092
2017-07-11T06:57:28.763Z,3812
2017-07-11T06:58:09.308Z,2628
2017-07-11T06:58:49.834Z,3192
2017-07-11T06:59:30.360Z,3404
2017-07-11T07:00:10.888Z,1732
2017-07-11T07:00:51.399Z,1832
2017-07-11T07:01:31.929Z,2004
2017-07-11T07:02:12.411Z,2464
2017-07-11T07:02:52.904Z,1732
2017-07-11T07:03:33.431Z,1832
2017-07-11T07:04:13.923Z,1780
2017-07-11T07:04:54.492Z,2316
2017-07-11T07:05:34.983Z,3448
2017-07-11T07:06:15.505Z,3496
2017-07-11T07:06:56.014Z,1984
2017-07-11T07:07:36.531Z,2052
2017-07-11T07:08:17.079Z,3472
2017-07-11T07:08:57.647Z,2108
2017-07-11T07:09:38.153Z,2096
2017-07-11T07:10:18.647Z,3592
2017-07-11T07:10:59.165Z,3064
2017-07-11T07:11:39.695Z,3424
2017-07-11T07:12:20.212Z,3456
2017-07-11T07:13:00.723Z,3288
2017-07-11T07:13:41.260Z,3460
2017-07-11T07:14:21.751Z,2744
2017-07-11T07:15:02.257Z,2188
2017-07-11T07:15:42.796Z,1928
2017-07-11T07:16:23.290Z,1852
2017-07-11T07:17:03.796Z,1748
2017-07-11T07:17:44.277Z,1580
2017-07-11T07:18:24.766Z,1540
2017-07-11T07:19:05.277Z,1612
2017-07-11T07:19:45.770Z,1648
2017-07-11T07:20:26.287Z,2008
2017-07-11T07:21:06.778Z,1672
2017-07-11T07:21:47.254Z,1628
2017-07-11T07:22:27.852Z,1748
2017-07-11T07:23:08.436Z,1776
2017-07-11T07:23:48.942Z,1664
2017-07-11T07:24:29.443Z,1736
2017-07-11T07:25:09.937Z,1692
2017-07-11T07:25:50.447Z,1640
2017-07-11T07:26:30.974Z,1600
2017-07-11T07:27:11.517Z,1592
2017-07-11T07:27:51.943Z,1440
2017-07-11T07:28:32.465Z,1464
2017-07-11T07:29:12.998Z,1492
2017-07-11T07:29:53.479Z,1412
2017-07-11T07:30:33.997Z,1416
2017-07-11T07:31:14.585Z,1528
2017-07-11T07:31:55.105Z,1512
2017-07-11T07:32:35.628Z,1532
2017-07-11T07:33:16.170Z,1452
2017-07-11T07:33:56.626Z,2132
2017-07-11T07:34:37.156Z,2372
2017-07-11T07:35:17.661Z,2868
2017-07-11T07:35:58.151Z,2000
2017-07-11T07:36:38.786Z,2900
2017-07-11T07:37:19.317Z,1604
2017-07-11T07:37:59.816Z,2176
2017-07-11T07:38:40.358Z,2652
2017-07-11T07:39:20.855Z,2532
2017-07-11T07:40:01.413Z,2636
2017-07-11T07:40:41.865Z,1464
2017-07-11T07:41:22.375Z,2612
2017-07-11T07:42:02.875Z,2664
2017-07-11T07:42:43.368Z,2644
2017-07-11T07:43:23.878Z,2436
2017-07-11T07:44:04.356Z,2512
2017-07-11T07:44:44.892Z,2720
2017-07-11T07:45:25.410Z,2740
2017-07-11T07:46:05.906Z,2740
2017-07-11T07:46:46.442Z,2600
2017-07-11T07:47:26.957Z,2428
2017-07-11T07:48:07.398Z,2328
2017-07-11T07:48:47.929Z,2492
2017-07-11T07:49:28.403Z,2372
2017-07-11T07:50:08.912Z,1756
2017-07-11T07:50:49.405Z,2776
2017-07-11T07:51:29.896Z,2928
2017-07-11T07:52:10.432Z,2764
2017-07-11T07:52:50.967Z,2868
2017-07-11T07:53:31.437Z,2292
2017-07-11T07:54:11.945Z,2804
2017-07-11T07:54:52.438Z,2812
2017-07-11T07:55:32.956Z,2864
2017-07-11T07:56:13.504Z,2844
2017-07-11T07:56:53.950Z,2844
2017-07-11T07:57:34.489Z,2868
2017-07-11T07:58:14.970Z,2784
2017-07-11T07:58:55.493Z,2864
2017-07-11T07:59:35.985Z,2748
2017-07-11T08:00:16.686Z,2836
2017-07-11T08:00:57.199Z,2120
2017-07-11T08:01:37.697Z,2072
2017-07-11T08:02:18.184Z,2652
2017-07-11T08:02:58.716Z,2592
2017-07-11T08:03:39.226Z,1864
2017-07-11T08:04:19.725Z,2528
2017-07-11T08:05:00.241Z,1948
2017-07-11T08:05:40.752Z,1868
2017-07-11T08:06:21.256Z,1820
2017-07-11T08:07:01.747Z,1708
2017-07-11T08:07:42.287Z,1620
2017-07-11T08:08:22.808Z,1804
2017-07-11T08:09:03.292Z,2868
2017-07-11T08:09:43.794Z,2112
2017-07-11T08:10:24.295Z,1820
2017-07-11T08:11:04.872Z,1596
2017-07-11T08:11:45.331Z,1528
2017-07-11T08:12:25.826Z,1496
2017-07-11T08:13:06.303Z,1436
2017-07-11T08:13:46.821Z,1416
2017-07-11T08:14:27.340Z,1424
2017-07-11T08:15:07.847Z,1400
2017-07-11T08:15:48.323Z,1404
2017-07-11T08:16:28.816Z,1496
2017-07-11T08:17:09.317Z,1480
2017-07-11T08:17:49.853Z,1356
2017-07-11T08:18:30.404Z,1284
2017-07-11T08:19:10.895Z,1180
2017-07-11T08:19:51.353Z,1204
2017-07-11T08:20:31.881Z,1320
2017-07-11T08:21:12.346Z,1404
2017-07-11T08:21:52.853Z,1552
2017-07-11T08:22:33.393Z,1444
2017-07-11T08:23:13.882Z,1592
2017-07-11T08:23:54.377Z,1444
2017-07-11T08:24:34.904Z,1440
2017-07-11T08:25:15.420Z,1552
2017-07-11T08:25:55.931Z,1660
2017-07-11T08:26:36.439Z,1708
2017-07-11T08:27:16.909Z,1644
2017-07-11T08:27:57.410Z,1676
2017-07-11T08:28:37.924Z,1752
2017-07-11T08:29:18.433Z,1808
2017-07-11T08:29:58.963Z,1904
2017-07-11T08:30:39.505Z,1884
2017-07-11T08:31:20.049Z,1788
2017-07-11T08:32:00.547Z,1608
2017-07-11T08:32:41.069Z,1540
2017-07-11T08:33:21.594Z,1388
2017-07-11T08:34:02.097Z,1384
2017-07-11T08:34:42.606Z,1404
2017-07-11T08:35:23.268Z,1348
2017-07-11T08:36:03.781Z,1288
2017-07-11T08:36:44.292Z,1248
2017-07-11T08:37:24.809Z,1164
2017-07-11T08:38:05.336Z,1076
2017-07-11T08:38:45.834Z,1116
2017-07-11T08:39:26.343Z,1228
2017-07-11T08:40:06.853Z,1292
2017-07-11T08:40:47.367Z,1428
2017-07-11T08:41:27.887Z,1548
2017-07-11T08:42:08.440Z,1548
2017-07-11T08:42:48.924Z,1596
2017-07-11T08:43:29.445Z,1616
2017-07-11T08:44:09.941Z,1584
2017-07-11T08:44:50.417Z,1548
2017-07-11T08:45:30.987Z,1520
2017-07-11T08:46:11.446Z,1476
2017-07-11T08:46:51.942Z,1404
2017-07-11T08:47:32.552Z,1292
2017-07-11T08:48:13.013Z,1260
2017-07-11T08:48:53.535Z,1212
2017-07-11T08:49:34.009Z,1252
2017-07-11T08:50:14.497Z,1152
2017-07-11T08:50:55.006Z,1236
2017-07-11T08:51:35.530Z,1384
2017-07-11T08:52:16.046Z,1504
2017-07-11T08:52:56.554Z,1540
2017-07-11T08:53:37.139Z,1580
2017-07-11T08:54:17.608Z,1508
2017-07-11T08:54:58.155Z,1420
2017-07-11T08:55:38.677Z,1304
2017-07-11T08:56:19.181Z,1360
2017-07-11T08:56:59.690Z,1400
2017-07-11T08:57:40.182Z,1456
2017-07-11T08:58:20.703Z,1556
2017-07-11T08:59:01.205Z,1480
2017-07-11T08:59:41.764Z,1328
2017-07-11T09:00:22.247Z,1220
2017-07-11T09:01:02.725Z,1128
2017-07-11T09:01:43.219Z,1048
2017-07-11T09:02:23.703Z,1004
2017-07-11T09:03:04.202Z,980
2017-07-11T09:03:44.700Z,1024
2017-07-11T09:04:25.206Z,1068
2017-07-11T09:05:05.705Z,1096
2017-07-11T09:05:46.226Z,1076
2017-07-11T09:06:26.714Z,1012
2017-07-11T09:07:07.211Z,1024
2017-07-11T09:07:47.752Z,1016
2017-07-11T09:08:28.264Z,1048
2017-07-11T09:09:08.767Z,1088
2017-07-11T09:09:49.260Z,1008
2017-07-11T09:10:29.774Z,952
2017-07-11T09:11:10.283Z,860
2017-07-11T09:11:50.782Z,752
2017-07-11T09:12:31.285Z,776
2017-07-11T09:13:11.757Z,688
2017-07-11T09:13:52.261Z,708
2017-07-11T09:14:32.777Z,732
2017-07-11T09:15:13.278Z,792
2017-07-11T09:15:53.784Z,828
2017-07-11T09:16:34.287Z,868
2017-07-11T09:17:14.812Z,824
2017-07-11T09:17:55.307Z,828
2017-07-11T09:18:35.768Z,824
2017-07-11T09:19:16.289Z,860
2017-07-11T09:19:56.789Z,952
2017-07-11T09:20:37.343Z,1052
2017-07-11T09:21:17.834Z,1116
2017-07-11T09:21:58.349Z,1184
2017-07-11T09:22:38.864Z,1248
2017-07-11T09:23:19.401Z,1368
2017-07-11T09:23:59.936Z,1448
2017-07-11T09:24:40.456Z,1452
2017-07-11T09:25:20.925Z,1348
2017-07-11T09:26:01.412Z,1168
2017-07-11T09:26:41.929Z,1072
2017-07-11T09:27:22.476Z,920
2017-07-11T09:28:02.997Z,832
2017-07-11T09:28:43.474Z,812
2017-07-11T09:29:24.035Z,784
2017-07-11T09:30:04.498Z,836
2017-07-11T09:30:45.038Z,884
2017-07-11T09:31:25.566Z,956
2017-07-11T09:32:06.046Z,1012